X  Fermer Données météorologiques d'aviation de Metar     EDDM Munich Airport
Température
28°F Température
28°F Point de rosée
100% Humidité



Vent
3 MPH
5 KM/H
1 M/S
3 KTS



80°
E
Conditions actuelles

Verglaçante Brouillard Verglaçante Brouillard
Pression 1027.92 (hPa) - 30.35 (inHg)
Visibilité 0.2 (mile) - 0.3 (km)
Aéroport
Code de l'aéroport EDDM

Emplacement: Munich Airport
Distance: 73 (mi)

Metar:
EDDM 270520Z AUTO 08003KT 340V110 0300 0250 R08L/0275N R08R/0450N FZFG VV003 M02/M02 Q1028 TEMPO 0400

Temps: 27-11-2022 06:20 CET